Lules, Argentina
Current Conditions -  °F | °C
As of 2:00 PM on Sunday 23 Nov 2014 (Local Time) from SANT Reporting Station
Few Clouds Few Clouds  
Wind Chill: 91°   Ceiling: Unl
Heat Index: 91°   Visibility: 6mi
Dew Point: 61°   Wind: 14mph
Humidity: 36%   Direction: 50°NE
Pressure: 29.74"   Gusts: NA
Location:  26.93°S, 65.35°W
Report Text: SANT 231700Z 05012KT 9999 FEW040 33/16 Q1007
Loading
Personal Weather Stations






























Interactive Weather Map New forecast layout! Learn more

10-Day Weather Forecast

Advertisements
Track Severe Weather on mobile